createdAt,value
2022-10-10T00:00:47.970Z,8.14
2022-10-10T00:03:14.401Z,8.11
2022-10-10T00:05:41.001Z,8.12
2022-10-10T00:08:07.877Z,8.11
2022-10-10T00:10:35.751Z,8.12
2022-10-10T00:13:02.189Z,8.05
2022-10-10T00:15:28.672Z,8.06
2022-10-10T00:17:55.050Z,8.03
2022-10-10T00:20:21.475Z,7.95
2022-10-10T00:22:48.214Z,7.91
2022-10-10T00:25:15.006Z,8.01
2022-10-10T00:27:41.665Z,8.01
2022-10-10T00:30:08.727Z,8.00
2022-10-10T00:32:35.535Z,7.92
2022-10-10T00:35:02.093Z,7.88
2022-10-10T00:37:28.452Z,7.84
2022-10-10T00:39:54.807Z,7.74
2022-10-10T00:42:21.203Z,7.65
2022-10-10T00:44:47.594Z,7.69
2022-10-10T00:47:13.991Z,7.69
2022-10-10T00:49:42.075Z,7.67
2022-10-10T00:52:09.729Z,7.57
2022-10-10T00:54:36.303Z,7.48
2022-10-10T00:57:10.339Z,7.39
2022-10-10T00:59:37.424Z,7.27
2022-10-10T01:02:04.041Z,7.14
2022-10-10T01:04:44.459Z,7.06
2022-10-10T01:07:28.593Z,6.97
2022-10-10T01:09:56.519Z,6.93
2022-10-10T01:12:41.186Z,6.79
2022-10-10T01:15:26.477Z,6.80
2022-10-10T01:18:15.174Z,6.79
2022-10-10T01:21:29.821Z,6.78
2022-10-10T01:24:10.100Z,6.74
2022-10-10T01:27:00.437Z,6.71
2022-10-10T01:29:36.332Z,6.62
2022-10-10T01:32:11.587Z,6.57
2022-10-10T01:34:55.956Z,6.50
2022-10-10T01:37:33.040Z,6.52
2022-10-10T01:40:13.279Z,6.44
2022-10-10T01:42:50.526Z,6.43
2022-10-10T01:45:17.335Z,6.36
2022-10-10T01:47:43.760Z,6.28
2022-10-10T01:50:14.017Z,6.26
2022-10-10T01:52:53.248Z,6.26
2022-10-10T01:55:37.857Z,6.18
2022-10-10T01:58:09.168Z,6.12
2022-10-10T02:01:27.013Z,6.13
2022-10-10T02:04:13.816Z,6.07
2022-10-10T02:07:05.141Z,6.02
2022-10-10T02:09:41.221Z,6.00
2022-10-10T02:12:08.106Z,5.97
2022-10-10T02:14:38.014Z,5.95
2022-10-10T02:17:04.427Z,5.94
2022-10-10T02:19:30.793Z,5.93
2022-10-10T02:21:57.198Z,5.87
2022-10-10T02:24:24.331Z,5.84
2022-10-10T02:26:56.752Z,5.82
2022-10-10T02:29:27.027Z,5.81
2022-10-10T02:32:14.068Z,5.80
2022-10-10T02:34:43.096Z,5.79
2022-10-10T02:37:12.400Z,5.74
2022-10-10T02:39:47.433Z,5.70
2022-10-10T02:42:15.061Z,5.67
2022-10-10T02:44:41.440Z,5.60
2022-10-10T02:47:07.996Z,5.53
2022-10-10T02:49:34.694Z,5.53
2022-10-10T02:52:01.395Z,5.49
2022-10-10T02:54:27.859Z,5.49
2022-10-10T02:56:54.293Z,5.50
2022-10-10T02:59:20.719Z,5.50
2022-10-10T03:01:47.239Z,5.49
2022-10-10T03:04:13.788Z,5.48
2022-10-10T03:06:40.188Z,5.48
2022-10-10T03:09:06.580Z,5.48
2022-10-10T03:11:33.105Z,5.49
2022-10-10T03:13:59.493Z,5.44
2022-10-10T03:16:25.880Z,5.48
2022-10-10T03:18:52.806Z,5.44
2022-10-10T03:21:19.292Z,5.42
2022-10-10T03:23:45.687Z,5.40
2022-10-10T03:26:12.045Z,5.36
2022-10-10T03:28:38.512Z,5.37
2022-10-10T03:31:05.156Z,5.35
2022-10-10T03:33:31.558Z,5.33
2022-10-10T03:35:57.969Z,5.34
2022-10-10T03:38:24.361Z,5.37
2022-10-10T03:40:50.801Z,5.33
2022-10-10T03:43:17.254Z,5.33
2022-10-10T03:45:47.653Z,5.29
2022-10-10T03:48:14.362Z,5.23
2022-10-10T03:50:40.796Z,5.23
2022-10-10T03:53:07.323Z,5.24
2022-10-10T03:55:33.722Z,5.25
2022-10-10T03:58:00.107Z,5.22
2022-10-10T04:00:26.573Z,5.21
2022-10-10T04:02:53.751Z,5.18
2022-10-10T04:05:20.302Z,5.15
2022-10-10T04:07:46.677Z,5.16
2022-10-10T04:10:13.082Z,5.17
2022-10-10T04:12:39.491Z,5.17
2022-10-10T04:15:06.435Z,5.15
2022-10-10T04:17:32.821Z,5.14
2022-10-10T04:19:59.308Z,5.12
2022-10-10T04:22:25.727Z,5.11
2022-10-10T04:24:52.099Z,5.06
2022-10-10T04:27:18.502Z,5.06
2022-10-10T04:29:44.902Z,5.02
2022-10-10T04:32:11.304Z,5.00
2022-10-10T04:34:37.667Z,4.99
2022-10-10T04:37:04.072Z,4.99
2022-10-10T04:39:30.466Z,5.01
2022-10-10T04:41:56.991Z,5.04
2022-10-10T04:44:23.377Z,5.03
2022-10-10T04:46:49.753Z,5.02
2022-10-10T04:49:16.202Z,5.06
2022-10-10T04:51:42.639Z,5.08
2022-10-10T04:54:09.926Z,5.09
2022-10-10T04:56:36.333Z,5.07
2022-10-10T04:59:02.739Z,5.05
2022-10-10T05:01:29.269Z,5.09
2022-10-10T05:03:55.978Z,5.10
2022-10-10T05:06:22.372Z,5.15
2022-10-10T05:08:48.749Z,5.16
2022-10-10T05:11:15.158Z,5.14
2022-10-10T05:13:41.548Z,5.12
2022-10-10T05:16:07.936Z,5.11
2022-10-10T05:18:37.291Z,5.09
2022-10-10T05:21:04.093Z,5.10
2022-10-10T05:23:30.535Z,5.10
2022-10-10T05:25:57.141Z,5.08
2022-10-10T05:28:23.597Z,5.09
2022-10-10T05:30:51.074Z,5.02
2022-10-10T05:33:17.612Z,5.02
2022-10-10T05:35:44.206Z,4.98
2022-10-10T05:38:10.712Z,4.93
2022-10-10T05:40:40.383Z,5.00
2022-10-10T05:43:06.771Z,4.99
2022-10-10T05:45:33.180Z,5.01
2022-10-10T05:47:59.552Z,5.03
2022-10-10T05:50:39.023Z,5.01
2022-10-10T05:53:06.787Z,5.00
2022-10-10T05:55:33.481Z,4.96
2022-10-10T05:57:59.857Z,4.92
2022-10-10T06:00:26.330Z,5.03
2022-10-10T06:02:53.116Z,5.08
2022-10-10T06:05:20.119Z,5.03
2022-10-10T06:08:04.577Z,5.10
2022-10-10T06:10:42.272Z,5.12
2022-10-10T06:13:09.459Z,5.17
2022-10-10T06:15:35.862Z,5.29
2022-10-10T06:18:02.391Z,5.37
2022-10-10T06:20:28.765Z,5.45
2022-10-10T06:22:55.648Z,5.54
2022-10-10T06:25:38.993Z,5.61
2022-10-10T06:28:06.819Z,5.67
2022-10-10T06:30:34.985Z,5.66
2022-10-10T06:33:01.592Z,5.73
2022-10-10T06:35:28.103Z,5.79
2022-10-10T06:37:54.499Z,5.85
2022-10-10T06:40:20.881Z,5.88
2022-10-10T06:42:47.285Z,5.88
2022-10-10T06:45:13.929Z,5.97
2022-10-10T06:47:41.908Z,5.97
2022-10-10T06:50:08.630Z,6.09
2022-10-10T06:52:35.026Z,6.18
2022-10-10T06:55:01.419Z,6.21
2022-10-10T06:57:27.871Z,6.28
2022-10-10T06:59:54.253Z,6.40
2022-10-10T07:02:20.692Z,6.49
2022-10-10T07:04:47.078Z,6.60
2022-10-10T07:07:13.509Z,6.67
2022-10-10T07:09:39.942Z,6.73
2022-10-10T07:12:06.356Z,6.80
2022-10-10T07:14:32.747Z,6.87
2022-10-10T07:16:59.112Z,6.92
2022-10-10T07:19:25.507Z,7.00
2022-10-10T07:21:51.904Z,7.07
2022-10-10T07:24:18.321Z,7.11
2022-10-10T07:26:44.711Z,7.15
2022-10-10T07:29:11.101Z,7.17
2022-10-10T07:31:37.463Z,7.23
2022-10-10T07:34:05.595Z,7.32
2022-10-10T07:36:32.024Z,7.40
2022-10-10T07:38:58.470Z,7.46
2022-10-10T07:41:24.920Z,7.48
2022-10-10T07:43:55.808Z,7.50
2022-10-10T07:46:22.275Z,7.53
2022-10-10T07:48:49.227Z,7.62
2022-10-10T07:51:15.920Z,7.64
2022-10-10T07:53:44.068Z,7.72
2022-10-10T07:56:11.838Z,7.71
2022-10-10T07:58:38.266Z,7.71
2022-10-10T08:01:05.829Z,7.76
2022-10-10T08:03:32.211Z,7.80
2022-10-10T08:05:58.611Z,7.82
2022-10-10T08:08:24.986Z,7.90
2022-10-10T08:10:51.432Z,8.02
2022-10-10T08:13:17.824Z,8.06
2022-10-10T08:15:44.314Z,8.21
2022-10-10T08:18:10.713Z,8.39
2022-10-10T08:20:37.116Z,8.72
2022-10-10T08:23:03.508Z,9.11
2022-10-10T08:25:29.917Z,9.37
2022-10-10T08:27:56.322Z,9.62
2022-10-10T08:30:22.895Z,9.71
2022-10-10T08:32:49.660Z,9.73
2022-10-10T08:35:16.247Z,9.69
2022-10-10T08:37:42.667Z,9.65
2022-10-10T08:40:12.761Z,9.84
2022-10-10T08:42:53.001Z,10.09
2022-10-10T08:45:24.788Z,10.38
2022-10-10T08:47:56.401Z,10.44
2022-10-10T08:50:29.744Z,10.51
2022-10-10T08:53:03.148Z,10.68
2022-10-10T08:55:33.862Z,10.87
2022-10-10T08:58:00.231Z,11.08
2022-10-10T09:00:29.907Z,11.18
2022-10-10T09:02:58.190Z,11.26
2022-10-10T09:05:40.106Z,11.37
2022-10-10T09:08:25.728Z,11.49
2022-10-10T09:11:05.439Z,11.62
2022-10-10T09:13:47.220Z,11.74
2022-10-10T09:16:51.038Z,11.81
2022-10-10T09:19:35.770Z,11.91
2022-10-10T09:22:04.891Z,11.98
2022-10-10T09:24:42.539Z,12.07
2022-10-10T09:27:13.033Z,12.24
2022-10-10T09:29:42.517Z,12.42
2022-10-10T09:32:15.762Z,12.63
2022-10-10T09:35:19.142Z,12.75
2022-10-10T09:37:47.663Z,13.00
2022-10-10T09:40:37.652Z,13.14
2022-10-10T09:43:12.284Z,13.25
2022-10-10T09:45:39.328Z,13.30
2022-10-10T09:48:05.964Z,13.35
2022-10-10T09:50:32.349Z,13.45
2022-10-10T09:52:58.742Z,13.58
2022-10-10T09:55:28.110Z,13.71
2022-10-10T09:57:56.722Z,13.72
2022-10-10T10:00:43.455Z,13.78
2022-10-10T10:03:12.931Z,13.83
2022-10-10T10:05:40.517Z,14.03
2022-10-10T10:08:45.600Z,14.13
2022-10-10T10:11:25.950Z,14.18
2022-10-10T10:13:56.475Z,14.17
2022-10-10T10:16:30.957Z,14.22
2022-10-10T10:18:57.351Z,14.44
2022-10-10T10:21:24.216Z,14.52
2022-10-10T10:23:50.566Z,14.63
2022-10-10T10:26:20.093Z,14.75
2022-10-10T10:28:47.137Z,14.85
2022-10-10T10:31:41.428Z,14.79
2022-10-10T10:34:19.034Z,14.91
2022-10-10T10:37:14.940Z,15.11
2022-10-10T10:39:50.489Z,15.31
2022-10-10T10:42:29.209Z,15.35
2022-10-10T10:45:28.063Z,15.46
2022-10-10T10:48:00.164Z,15.60
2022-10-10T10:50:46.262Z,15.75
2022-10-10T10:53:27.613Z,15.89
2022-10-10T11:00:20.685Z,16.25
2022-10-10T11:02:08.262Z,16.40
2022-10-10T11:05:18.838Z,16.50
2022-10-10T11:07:58.519Z,16.90
2022-10-10T11:10:30.667Z,17.07
2022-10-10T11:13:12.236Z,17.23
2022-10-10T11:18:31.193Z,17.44
2022-10-10T11:21:05.037Z,17.78
2022-10-10T11:23:34.526Z,17.84
2022-10-10T11:26:11.467Z,18.14
2022-10-10T11:28:40.258Z,18.29
2022-10-10T11:31:11.677Z,18.29
2022-10-10T11:33:45.966Z,18.29
2022-10-10T11:36:19.880Z,18.29
2022-10-10T11:38:54.847Z,18.50
2022-10-10T11:41:27.131Z,18.63
2022-10-10T11:43:55.948Z,18.43
2022-10-10T11:46:46.178Z,18.62
2022-10-10T11:49:12.543Z,18.82
2022-10-10T11:52:09.609Z,18.97
2022-10-10T11:55:02.241Z,18.64
2022-10-10T11:58:00.930Z,19.15
2022-10-10T12:00:27.346Z,19.28
2022-10-10T12:02:53.788Z,19.30
2022-10-10T12:05:28.061Z,19.30
2022-10-10T12:07:57.608Z,19.67
2022-10-10T12:10:30.384Z,19.69
2022-10-10T12:12:59.143Z,19.53
2022-10-10T12:15:28.222Z,19.46
2022-10-10T12:17:54.693Z,19.39
2022-10-10T12:20:21.055Z,19.61
2022-10-10T12:22:47.664Z,19.59
2022-10-10T12:25:25.640Z,19.58
2022-10-10T12:28:13.278Z,19.60
2022-10-10T12:30:58.214Z,19.73
2022-10-10T12:33:31.344Z,19.94
2022-10-10T12:35:57.728Z,20.13
2022-10-10T12:38:27.905Z,20.11
2022-10-10T12:40:57.481Z,20.12
2022-10-10T12:43:50.302Z,19.99
2022-10-10T12:46:27.948Z,19.98
2022-10-10T12:49:05.845Z,20.06
2022-10-10T12:51:33.589Z,19.85
2022-10-10T12:54:00.901Z,19.95
2022-10-10T12:56:37.841Z,19.77
2022-10-10T12:59:05.948Z,19.97
2022-10-10T13:01:34.782Z,19.97
2022-10-10T13:04:01.230Z,19.82
2022-10-10T13:06:33.604Z,19.85
2022-10-10T13:09:00.180Z,19.82
2022-10-10T13:11:26.652Z,19.88
2022-10-10T13:13:54.479Z,19.85
2022-10-10T13:16:22.928Z,19.86
2022-10-10T13:18:50.793Z,19.76
2022-10-10T13:21:22.555Z,19.90
2022-10-10T13:26:43.992Z,19.84
2022-10-10T13:29:31.076Z,19.88
2022-10-10T13:31:59.783Z,19.80
2022-10-10T13:34:28.258Z,19.90
2022-10-10T13:36:58.728Z,20.01
2022-10-10T13:39:25.178Z,19.81
2022-10-10T13:41:51.603Z,19.49
2022-10-10T13:44:26.049Z,19.60
2022-10-10T13:46:52.572Z,19.66
2022-10-10T13:49:26.847Z,19.84
2022-10-10T13:52:02.016Z,20.04
2022-10-10T13:55:13.553Z,19.89
2022-10-10T13:57:40.016Z,19.71
2022-10-10T14:00:14.014Z,19.78
2022-10-10T14:02:41.053Z,19.61
2022-10-10T14:05:08.249Z,19.61
2022-10-10T14:07:34.687Z,19.55
2022-10-10T14:10:10.626Z,19.46
2022-10-10T14:12:51.387Z,19.59
2022-10-10T14:15:31.261Z,19.34
2022-10-10T14:17:57.667Z,19.31
2022-10-10T14:20:24.033Z,19.25
2022-10-10T14:22:50.818Z,19.33
2022-10-10T14:25:17.195Z,19.48
2022-10-10T14:27:43.591Z,19.31
2022-10-10T14:30:16.213Z,19.24
2022-10-10T14:32:45.439Z,19.19
2022-10-10T14:35:15.347Z,19.13
2022-10-10T14:37:41.793Z,19.19
2022-10-10T14:40:20.065Z,19.16
2022-10-10T14:42:46.859Z,19.16
2022-10-10T14:45:14.433Z,19.15
2022-10-10T14:47:40.981Z,19.14
2022-10-10T14:50:19.443Z,19.01
2022-10-10T14:52:46.049Z,19.01
2022-10-10T14:55:12.609Z,19.14
2022-10-10T14:57:39.022Z,18.99
2022-10-10T15:00:06.602Z,18.88
2022-10-10T15:02:33.009Z,19.04
2022-10-10T15:05:03.706Z,19.14
2022-10-10T15:07:30.078Z,19.06
2022-10-10T15:10:31.636Z,19.01
2022-10-10T15:12:43.781Z,18.85
2022-10-10T15:15:11.466Z,18.78
2022-10-10T15:17:37.976Z,18.86
2022-10-10T15:20:05.515Z,18.74
2022-10-10T15:22:34.697Z,18.80
2022-10-10T15:25:05.123Z,18.83
2022-10-10T15:27:32.733Z,18.75
2022-10-10T15:29:59.499Z,18.62
2022-10-10T15:32:26.114Z,18.44
2022-10-10T15:34:52.602Z,18.34
2022-10-10T15:37:19.227Z,18.27
2022-10-10T15:39:46.131Z,18.21
2022-10-10T15:42:22.157Z,18.01
2022-10-10T15:44:49.423Z,17.83
2022-10-10T15:47:17.390Z,17.74
2022-10-10T15:49:43.808Z,17.69
2022-10-10T15:52:10.587Z,17.59
2022-10-10T15:54:37.040Z,17.56
2022-10-10T15:57:03.528Z,17.58
2022-10-10T15:59:30.031Z,17.49
2022-10-10T16:01:56.555Z,17.33
2022-10-10T16:04:23.125Z,17.27
2022-10-10T16:06:54.601Z,17.09
2022-10-10T16:09:35.612Z,17.01
2022-10-10T16:12:02.092Z,16.92
2022-10-10T16:14:28.874Z,16.98
2022-10-10T16:16:55.511Z,17.01
2022-10-10T16:19:21.888Z,16.90
2022-10-10T16:21:48.267Z,16.82
2022-10-10T16:24:15.177Z,16.67
2022-10-10T16:26:44.491Z,16.60
2022-10-10T16:29:11.020Z,16.64
2022-10-10T16:31:40.029Z,16.69
2022-10-10T16:34:06.727Z,16.78
2022-10-10T16:36:37.239Z,16.80
2022-10-10T16:39:03.950Z,16.89
2022-10-10T16:41:48.512Z,16.88
2022-10-10T16:44:16.221Z,16.87
2022-10-10T16:46:42.590Z,16.84
2022-10-10T16:49:09.730Z,16.80
2022-10-10T16:51:36.223Z,16.77
2022-10-10T16:54:02.905Z,16.76
2022-10-10T16:56:29.854Z,16.81
2022-10-10T16:58:57.918Z,16.79
2022-10-10T17:01:24.405Z,16.71
2022-10-10T17:03:53.693Z,16.71
2022-10-10T17:06:21.590Z,16.64
2022-10-10T17:08:48.954Z,16.56
2022-10-10T17:11:17.023Z,16.50
2022-10-10T17:13:43.586Z,16.54
2022-10-10T17:16:59.392Z,16.60
2022-10-10T17:19:00.336Z,16.54
2022-10-10T17:21:26.726Z,16.48
2022-10-10T17:23:53.166Z,16.52
2022-10-10T17:26:22.531Z,16.49
2022-10-10T17:28:58.684Z,16.44
2022-10-10T17:31:25.389Z,16.40
2022-10-10T17:33:54.391Z,16.34
2022-10-10T17:36:22.498Z,16.34
2022-10-10T17:38:51.811Z,16.32
2022-10-10T17:41:19.595Z,16.20
2022-10-10T17:43:46.016Z,16.16
2022-10-10T17:46:33.679Z,16.18
2022-10-10T17:49:00.520Z,16.18
2022-10-10T17:51:29.818Z,16.19
2022-10-10T17:53:58.711Z,16.15
2022-10-10T17:56:25.099Z,16.06
2022-10-10T17:58:51.492Z,15.85
2022-10-10T18:01:18.534Z,15.73
2022-10-10T18:03:52.913Z,15.60
2022-10-10T18:06:20.827Z,15.33
2022-10-10T18:08:48.379Z,15.17
2022-10-10T18:11:19.137Z,15.08
2022-10-10T18:13:45.584Z,14.98
2022-10-10T18:16:13.569Z,14.87
2022-10-10T18:18:40.675Z,14.80
2022-10-10T18:21:08.310Z,14.68
2022-10-10T18:23:34.768Z,14.64
2022-10-10T18:26:17.280Z,14.59
2022-10-10T18:28:43.794Z,14.54
2022-10-10T18:31:13.468Z,14.52
2022-10-10T18:33:40.797Z,14.48
2022-10-10T18:36:08.194Z,14.45
2022-10-10T18:38:34.648Z,14.43
2022-10-10T18:41:05.496Z,14.37
2022-10-10T18:43:32.193Z,14.31
2022-10-10T18:46:02.405Z,14.35
2022-10-10T18:48:28.970Z,14.33
2022-10-10T18:51:29.554Z,14.27
2022-10-10T18:54:00.685Z,14.16
2022-10-10T18:56:28.657Z,14.15
2022-10-10T18:58:56.452Z,14.18
2022-10-10T19:01:24.810Z,14.18
2022-10-10T19:03:51.445Z,14.17
2022-10-10T19:06:17.927Z,14.17
2022-10-10T19:08:44.448Z,14.15
2022-10-10T19:11:23.566Z,14.20
2022-10-10T19:13:50.227Z,14.18
2022-10-10T19:16:16.713Z,14.14
2022-10-10T19:18:46.234Z,14.10
2022-10-10T19:21:12.746Z,13.94
2022-10-10T19:23:39.249Z,13.97
2022-10-10T19:26:07.338Z,13.80
2022-10-10T19:28:34.238Z,13.73
2022-10-10T19:31:12.144Z,13.59
2022-10-10T19:33:38.571Z,13.54
2022-10-10T19:36:09.423Z,13.49
2022-10-10T19:38:36.893Z,13.46
2022-10-10T19:41:07.368Z,13.51
2022-10-10T19:43:34.123Z,13.53
2022-10-10T19:46:04.325Z,13.54
2022-10-10T19:48:32.710Z,13.53
2022-10-10T19:50:59.441Z,13.43
2022-10-10T19:53:25.811Z,13.40
2022-10-10T19:56:02.545Z,13.41
2022-10-10T19:58:29.160Z,13.41
2022-10-10T20:00:57.172Z,13.38
2022-10-10T20:03:23.705Z,13.41
2022-10-10T20:05:50.119Z,13.45
2022-10-10T20:08:16.757Z,13.41
2022-10-10T20:10:43.573Z,13.41
2022-10-10T20:13:12.344Z,13.36
2022-10-10T20:15:42.563Z,13.31
2022-10-10T20:18:09.036Z,13.31
2022-10-10T20:20:43.717Z,13.32
2022-10-10T20:23:10.633Z,13.25
2022-10-10T20:25:38.794Z,13.25
2022-10-10T20:28:05.440Z,13.24
2022-10-10T20:30:32.261Z,13.22
2022-10-10T20:32:58.657Z,13.15
2022-10-10T20:35:25.051Z,13.17
2022-10-10T20:37:51.445Z,13.11
2022-10-10T20:40:20.787Z,13.00
2022-10-10T20:42:47.186Z,12.99
2022-10-10T20:45:13.557Z,12.96
2022-10-10T20:47:39.996Z,12.90
2022-10-10T20:50:07.335Z,12.87
2022-10-10T20:52:33.717Z,12.86
2022-10-10T20:55:00.111Z,12.78
2022-10-10T20:57:26.591Z,12.78
2022-10-10T20:59:53.007Z,12.71
2022-10-10T21:02:19.696Z,12.68
2022-10-10T21:04:46.212Z,12.62
2022-10-10T21:07:13.337Z,12.58
2022-10-10T21:09:39.880Z,12.60
2022-10-10T21:12:06.447Z,12.58
2022-10-10T21:14:32.828Z,12.51
2022-10-10T21:16:59.298Z,12.52
2022-10-10T21:19:25.786Z,12.50
2022-10-10T21:21:52.168Z,12.38
2022-10-10T21:24:18.619Z,12.37
2022-10-10T21:26:45.745Z,12.30
2022-10-10T21:29:12.144Z,12.28
2022-10-10T21:31:39.143Z,12.26
2022-10-10T21:34:06.683Z,12.22
2022-10-10T21:36:33.599Z,12.21
2022-10-10T21:39:00.904Z,12.19
2022-10-10T21:41:27.690Z,12.18
2022-10-10T21:43:55.358Z,12.14
2022-10-10T21:46:24.059Z,12.08
2022-10-10T21:48:51.827Z,12.10
2022-10-10T21:51:18.501Z,12.02
2022-10-10T21:53:44.924Z,11.98
2022-10-10T21:56:12.778Z,11.92
2022-10-10T21:58:41.276Z,11.87
2022-10-10T22:01:12.222Z,11.88
2022-10-10T22:03:38.748Z,11.87
2022-10-10T22:06:07.180Z,11.83
2022-10-10T22:08:34.438Z,11.77
2022-10-10T22:11:04.852Z,11.70
2022-10-10T22:13:31.284Z,11.69
2022-10-10T22:15:57.988Z,11.68
2022-10-10T22:18:24.492Z,11.56
2022-10-10T22:20:51.022Z,11.58
2022-10-10T22:23:17.818Z,11.49
2022-10-10T22:25:48.519Z,11.48
2022-10-10T22:28:15.323Z,11.34
2022-10-10T22:30:41.797Z,11.31
2022-10-10T22:33:08.336Z,11.27
2022-10-10T22:35:34.808Z,11.28
2022-10-10T22:38:01.717Z,11.25
2022-10-10T22:40:28.655Z,11.16
2022-10-10T22:42:55.296Z,11.12
2022-10-10T22:45:21.775Z,11.09
2022-10-10T22:47:48.172Z,11.00
2022-10-10T22:50:14.560Z,11.00
2022-10-10T22:52:41.096Z,11.03
2022-10-10T22:55:08.167Z,11.01
2022-10-10T22:57:34.860Z,11.02
2022-10-10T23:00:01.309Z,10.93
2022-10-10T23:02:27.735Z,10.90
2022-10-10T23:04:54.159Z,10.93
2022-10-10T23:07:20.560Z,10.89
2022-10-10T23:09:47.673Z,10.83
2022-10-10T23:12:14.268Z,10.86
2022-10-10T23:14:40.844Z,10.77
2022-10-10T23:17:07.233Z,10.76
2022-10-10T23:19:33.589Z,10.70
2022-10-10T23:21:59.990Z,10.64
2022-10-10T23:24:26.475Z,10.61
2022-10-10T23:26:52.857Z,10.45
2022-10-10T23:29:19.220Z,10.47
2022-10-10T23:31:45.720Z,10.44
2022-10-10T23:34:12.157Z,10.40
2022-10-10T23:36:38.549Z,10.41
2022-10-10T23:39:09.605Z,10.43
2022-10-10T23:41:36.420Z,10.36
2022-10-10T23:44:02.854Z,10.39
2022-10-10T23:46:29.317Z,10.44
2022-10-10T23:48:55.716Z,10.44
2022-10-10T23:51:22.174Z,10.35
2022-10-10T23:53:48.575Z,10.40
2022-10-10T23:56:14.961Z,10.36
2022-10-10T23:58:41.350Z,10.31
